Terminal Aerodrome Forecast
Issued by NWS

Home | Current Version | Previous Version | Text Only | Print | Product List | Glossary On
Versions: 1 2 3 4 5 6 7 8 9 10 11 12 13 14 15 16 17 18 19
408
FTUS43 KDTX 261720
TAFDET
TAF
KDET 261720Z 2618/2718 31009KT P6SM OVC035
     FM262200 VRB04KT P6SM BKN045
     FM270100 VRB04KT P6SM SCT045
     FM270400 08005KT 6SM -SHRA SCT025 OVC080
     FM270700 VRB04KT P6SM FEW050 SCT120
     FM271500 20004KT P6SM BKN035=

USA.gov is the U.S. government's official web portal to all federal, state and local government web resources and services.